sensor_id;sensor_type;location;lat;lon;timestamp;P1;durP1;ratioP1;P2;durP2;ratioP2
6551;SDS011;3309;48.708;9.290;2024-01-30T00:00:05;0.80;;;0.80;;
6551;SDS011;3309;48.708;9.290;2024-01-30T00:02:32;0.90;;;0.90;;
6551;SDS011;3309;48.708;9.290;2024-01-30T00:04:58;0.80;;;0.80;;
6551;SDS011;3309;48.708;9.290;2024-01-30T00:07:24;0.90;;;0.90;;
6551;SDS011;3309;48.708;9.290;2024-01-30T00:09:50;0.80;;;0.80;;
6551;SDS011;3309;48.708;9.290;2024-01-30T00:12:16;0.80;;;0.80;;
6551;SDS011;3309;48.708;9.290;2024-01-30T00:14:42;0.90;;;0.90;;
6551;SDS011;3309;48.708;9.290;2024-01-30T00:17:08;0.80;;;0.80;;
6551;SDS011;3309;48.708;9.290;2024-01-30T00:19:34;0.90;;;0.90;;
6551;SDS011;3309;48.708;9.290;2024-01-30T00:22:00;0.80;;;0.80;;
6551;SDS011;3309;48.708;9.290;2024-01-30T00:24:26;0.80;;;0.80;;
6551;SDS011;3309;48.708;9.290;2024-01-30T00:26:52;0.80;;;0.80;;
6551;SDS011;3309;48.708;9.290;2024-01-30T00:29:18;0.90;;;0.90;;
6551;SDS011;3309;48.708;9.290;2024-01-30T00:31:45;0.87;;;0.87;;
6551;SDS011;3309;48.708;9.290;2024-01-30T00:34:11;0.87;;;0.87;;
6551;SDS011;3309;48.708;9.290;2024-01-30T00:36:37;1.00;;;1.00;;
6551;SDS011;3309;48.708;9.290;2024-01-30T00:39:03;0.90;;;0.90;;
6551;SDS011;3309;48.708;9.290;2024-01-30T00:41:34;0.90;;;0.90;;
6551;SDS011;3309;48.708;9.290;2024-01-30T00:44:00;0.90;;;0.90;;
6551;SDS011;3309;48.708;9.290;2024-01-30T00:46:26;0.90;;;0.90;;
6551;SDS011;3309;48.708;9.290;2024-01-30T00:48:51;0.80;;;0.80;;
6551;SDS011;3309;48.708;9.290;2024-01-30T00:51:17;0.90;;;0.90;;
6551;SDS011;3309;48.708;9.290;2024-01-30T00:53:43;0.80;;;0.80;;
6551;SDS011;3309;48.708;9.290;2024-01-30T00:56:10;0.90;;;0.90;;
6551;SDS011;3309;48.708;9.290;2024-01-30T00:58:36;0.90;;;0.90;;
6551;SDS011;3309;48.708;9.290;2024-01-30T01:01:02;0.90;;;0.90;;
6551;SDS011;3309;48.708;9.290;2024-01-30T01:03:28;0.90;;;0.90;;
6551;SDS011;3309;48.708;9.290;2024-01-30T01:05:54;0.90;;;0.90;;
6551;SDS011;3309;48.708;9.290;2024-01-30T01:08:20;0.90;;;0.90;;
6551;SDS011;3309;48.708;9.290;2024-01-30T01:10:46;0.93;;;0.93;;
6551;SDS011;3309;48.708;9.290;2024-01-30T01:13:12;0.90;;;0.90;;
6551;SDS011;3309;48.708;9.290;2024-01-30T01:15:38;0.90;;;0.90;;
6551;SDS011;3309;48.708;9.290;2024-01-30T01:18:04;0.90;;;0.90;;
6551;SDS011;3309;48.708;9.290;2024-01-30T01:20:30;0.90;;;0.90;;
6551;SDS011;3309;48.708;9.290;2024-01-30T01:22:56;0.90;;;0.90;;
6551;SDS011;3309;48.708;9.290;2024-01-30T01:25:22;0.80;;;0.80;;
6551;SDS011;3309;48.708;9.290;2024-01-30T01:27:48;0.90;;;0.90;;
6551;SDS011;3309;48.708;9.290;2024-01-30T01:30:17;0.80;;;0.80;;
6551;SDS011;3309;48.708;9.290;2024-01-30T01:32:50;0.90;;;0.90;;
6551;SDS011;3309;48.708;9.290;2024-01-30T01:35:23;0.80;;;0.80;;
6551;SDS011;3309;48.708;9.290;2024-01-30T01:37:53;0.80;;;0.80;;
6551;SDS011;3309;48.708;9.290;2024-01-30T01:40:24;0.90;;;0.90;;
6551;SDS011;3309;48.708;9.290;2024-01-30T01:42:50;0.80;;;0.80;;
6551;SDS011;3309;48.708;9.290;2024-01-30T01:45:20;0.90;;;0.90;;
6551;SDS011;3309;48.708;9.290;2024-01-30T01:47:55;0.90;;;0.90;;
6551;SDS011;3309;48.708;9.290;2024-01-30T01:50:21;0.90;;;0.90;;
6551;SDS011;3309;48.708;9.290;2024-01-30T01:52:47;0.80;;;0.80;;
6551;SDS011;3309;48.708;9.290;2024-01-30T01:55:14;0.80;;;0.80;;
6551;SDS011;3309;48.708;9.290;2024-01-30T01:57:41;0.90;;;0.90;;
6551;SDS011;3309;48.708;9.290;2024-01-30T02:00:07;0.90;;;0.90;;
6551;SDS011;3309;48.708;9.290;2024-01-30T02:02:35;0.90;;;0.90;;
6551;SDS011;3309;48.708;9.290;2024-01-30T02:05:02;0.90;;;0.90;;
6551;SDS011;3309;48.708;9.290;2024-01-30T02:07:28;0.80;;;0.80;;
6551;SDS011;3309;48.708;9.290;2024-01-30T02:09:54;0.90;;;0.90;;
6551;SDS011;3309;48.708;9.290;2024-01-30T02:12:20;1.00;;;1.00;;
6551;SDS011;3309;48.708;9.290;2024-01-30T02:14:50;0.90;;;0.90;;
6551;SDS011;3309;48.708;9.290;2024-01-30T02:17:16;0.77;;;0.77;;
6551;SDS011;3309;48.708;9.290;2024-01-30T02:19:42;0.70;;;0.70;;
6551;SDS011;3309;48.708;9.290;2024-01-30T02:22:08;0.80;;;0.80;;
6551;SDS011;3309;48.708;9.290;2024-01-30T02:24:35;0.80;;;0.80;;
6551;SDS011;3309;48.708;9.290;2024-01-30T02:27:01;0.80;;;0.80;;
6551;SDS011;3309;48.708;9.290;2024-01-30T02:29:27;0.90;;;0.90;;
6551;SDS011;3309;48.708;9.290;2024-01-30T02:31:52;0.90;;;0.90;;
6551;SDS011;3309;48.708;9.290;2024-01-30T02:34:19;0.80;;;0.80;;
6551;SDS011;3309;48.708;9.290;2024-01-30T02:36:45;0.90;;;0.90;;
6551;SDS011;3309;48.708;9.290;2024-01-30T02:39:11;0.80;;;0.80;;
6551;SDS011;3309;48.708;9.290;2024-01-30T02:41:37;0.90;;;0.90;;
6551;SDS011;3309;48.708;9.290;2024-01-30T02:44:03;0.90;;;0.90;;
6551;SDS011;3309;48.708;9.290;2024-01-30T02:46:29;0.90;;;0.90;;
6551;SDS011;3309;48.708;9.290;2024-01-30T02:48:55;0.90;;;0.90;;
6551;SDS011;3309;48.708;9.290;2024-01-30T02:51:21;0.80;;;0.80;;
6551;SDS011;3309;48.708;9.290;2024-01-30T02:53:47;0.80;;;0.80;;
6551;SDS011;3309;48.708;9.290;2024-01-30T02:56:13;0.90;;;0.90;;
6551;SDS011;3309;48.708;9.290;2024-01-30T02:58:39;0.90;;;0.90;;
6551;SDS011;3309;48.708;9.290;2024-01-30T03:01:08;0.80;;;0.80;;
6551;SDS011;3309;48.708;9.290;2024-01-30T03:03:34;0.80;;;0.80;;
6551;SDS011;3309;48.708;9.290;2024-01-30T03:06:01;0.87;;;0.87;;
6551;SDS011;3309;48.708;9.290;2024-01-30T03:08:27;0.80;;;0.80;;
6551;SDS011;3309;48.708;9.290;2024-01-30T03:10:53;0.70;;;0.70;;
6551;SDS011;3309;48.708;9.290;2024-01-30T03:13:19;0.80;;;0.80;;
6551;SDS011;3309;48.708;9.290;2024-01-30T03:15:45;0.80;;;0.80;;
6551;SDS011;3309;48.708;9.290;2024-01-30T03:18:11;0.90;;;0.90;;
6551;SDS011;3309;48.708;9.290;2024-01-30T03:20:37;0.90;;;0.90;;
6551;SDS011;3309;48.708;9.290;2024-01-30T03:23:03;0.87;;;0.87;;
6551;SDS011;3309;48.708;9.290;2024-01-30T03:25:30;0.90;;;0.90;;
6551;SDS011;3309;48.708;9.290;2024-01-30T03:27:56;0.90;;;0.90;;
6551;SDS011;3309;48.708;9.290;2024-01-30T03:30:22;0.80;;;0.80;;
6551;SDS011;3309;48.708;9.290;2024-01-30T03:32:48;0.80;;;0.80;;
6551;SDS011;3309;48.708;9.290;2024-01-30T03:35:14;0.90;;;0.90;;
6551;SDS011;3309;48.708;9.290;2024-01-30T03:37:40;0.80;;;0.80;;
6551;SDS011;3309;48.708;9.290;2024-01-30T03:40:06;0.90;;;0.90;;
6551;SDS011;3309;48.708;9.290;2024-01-30T03:42:32;0.80;;;0.80;;
6551;SDS011;3309;48.708;9.290;2024-01-30T03:44:58;0.80;;;0.80;;
6551;SDS011;3309;48.708;9.290;2024-01-30T03:47:24;0.80;;;0.80;;
6551;SDS011;3309;48.708;9.290;2024-01-30T03:49:50;0.80;;;0.80;;
6551;SDS011;3309;48.708;9.290;2024-01-30T03:52:16;0.90;;;0.90;;
6551;SDS011;3309;48.708;9.290;2024-01-30T03:54:42;0.90;;;0.90;;
6551;SDS011;3309;48.708;9.290;2024-01-30T03:57:08;0.90;;;0.90;;
6551;SDS011;3309;48.708;9.290;2024-01-30T03:59:34;0.90;;;0.90;;
6551;SDS011;3309;48.708;9.290;2024-01-30T04:02:00;0.90;;;0.90;;
6551;SDS011;3309;48.708;9.290;2024-01-30T04:04:26;0.90;;;0.90;;
6551;SDS011;3309;48.708;9.290;2024-01-30T04:06:52;0.83;;;0.83;;
6551;SDS011;3309;48.708;9.290;2024-01-30T04:09:18;0.80;;;0.80;;
6551;SDS011;3309;48.708;9.290;2024-01-30T04:11:44;0.80;;;0.80;;
6551;SDS011;3309;48.708;9.290;2024-01-30T04:14:10;0.80;;;0.80;;
6551;SDS011;3309;48.708;9.290;2024-01-30T04:16:36;0.90;;;0.90;;
6551;SDS011;3309;48.708;9.290;2024-01-30T04:19:02;0.90;;;0.90;;
6551;SDS011;3309;48.708;9.290;2024-01-30T04:21:28;0.90;;;0.90;;
6551;SDS011;3309;48.708;9.290;2024-01-30T04:23:54;0.90;;;0.90;;
6551;SDS011;3309;48.708;9.290;2024-01-30T04:26:20;0.80;;;0.80;;
6551;SDS011;3309;48.708;9.290;2024-01-30T04:28:46;0.90;;;0.90;;
6551;SDS011;3309;48.708;9.290;2024-01-30T04:31:12;0.80;;;0.80;;
6551;SDS011;3309;48.708;9.290;2024-01-30T04:33:38;0.80;;;0.80;;
6551;SDS011;3309;48.708;9.290;2024-01-30T04:36:04;0.90;;;0.90;;
6551;SDS011;3309;48.708;9.290;2024-01-30T04:38:31;0.87;;;0.87;;
6551;SDS011;3309;48.708;9.290;2024-01-30T04:40:57;1.00;;;1.00;;
6551;SDS011;3309;48.708;9.290;2024-01-30T04:43:23;0.70;;;0.70;;
6551;SDS011;3309;48.708;9.290;2024-01-30T04:45:51;0.87;;;0.87;;
6551;SDS011;3309;48.708;9.290;2024-01-30T04:48:17;0.83;;;0.83;;
6551;SDS011;3309;48.708;9.290;2024-01-30T04:50:43;0.90;;;0.90;;
6551;SDS011;3309;48.708;9.290;2024-01-30T04:53:10;0.80;;;0.80;;
6551;SDS011;3309;48.708;9.290;2024-01-30T04:55:36;0.87;;;0.87;;
6551;SDS011;3309;48.708;9.290;2024-01-30T04:58:02;0.87;;;0.87;;
6551;SDS011;3309;48.708;9.290;2024-01-30T05:00:28;0.80;;;0.80;;
6551;SDS011;3309;48.708;9.290;2024-01-30T05:02:57;0.90;;;0.90;;
6551;SDS011;3309;48.708;9.290;2024-01-30T05:05:23;0.80;;;0.80;;
6551;SDS011;3309;48.708;9.290;2024-01-30T05:07:50;0.90;;;0.90;;
6551;SDS011;3309;48.708;9.290;2024-01-30T05:10:16;0.80;;;0.80;;
6551;SDS011;3309;48.708;9.290;2024-01-30T05:12:43;0.90;;;0.90;;
6551;SDS011;3309;48.708;9.290;2024-01-30T05:15:09;0.80;;;0.80;;
6551;SDS011;3309;48.708;9.290;2024-01-30T05:17:35;0.90;;;0.90;;
6551;SDS011;3309;48.708;9.290;2024-01-30T05:20:01;0.90;;;0.90;;
6551;SDS011;3309;48.708;9.290;2024-01-30T05:22:27;0.90;;;0.90;;
6551;SDS011;3309;48.708;9.290;2024-01-30T05:24:53;0.90;;;0.90;;
6551;SDS011;3309;48.708;9.290;2024-01-30T05:27:19;0.80;;;0.80;;
6551;SDS011;3309;48.708;9.290;2024-01-30T05:29:45;0.90;;;0.90;;
6551;SDS011;3309;48.708;9.290;2024-01-30T05:32:11;0.90;;;0.90;;
6551;SDS011;3309;48.708;9.290;2024-01-30T05:34:36;0.90;;;0.90;;
6551;SDS011;3309;48.708;9.290;2024-01-30T05:37:03;0.90;;;0.90;;
6551;SDS011;3309;48.708;9.290;2024-01-30T05:39:29;0.90;;;0.90;;
6551;SDS011;3309;48.708;9.290;2024-01-30T05:41:57;0.80;;;0.80;;
6551;SDS011;3309;48.708;9.290;2024-01-30T05:44:23;0.90;;;0.90;;
6551;SDS011;3309;48.708;9.290;2024-01-30T05:46:49;0.90;;;0.90;;
6551;SDS011;3309;48.708;9.290;2024-01-30T05:49:15;0.97;;;0.97;;
6551;SDS011;3309;48.708;9.290;2024-01-30T05:51:41;0.90;;;0.90;;
6551;SDS011;3309;48.708;9.290;2024-01-30T05:54:07;0.90;;;0.90;;
6551;SDS011;3309;48.708;9.290;2024-01-30T05:56:33;0.90;;;0.90;;
6551;SDS011;3309;48.708;9.290;2024-01-30T05:58:59;0.90;;;0.90;;
6551;SDS011;3309;48.708;9.290;2024-01-30T06:01:25;0.80;;;0.80;;
6551;SDS011;3309;48.708;9.290;2024-01-30T06:03:51;0.80;;;0.80;;
6551;SDS011;3309;48.708;9.290;2024-01-30T06:06:17;0.90;;;0.90;;
6551;SDS011;3309;48.708;9.290;2024-01-30T06:08:43;0.90;;;0.90;;
6551;SDS011;3309;48.708;9.290;2024-01-30T06:11:12;0.90;;;0.90;;
6551;SDS011;3309;48.708;9.290;2024-01-30T06:13:38;0.80;;;0.80;;
6551;SDS011;3309;48.708;9.290;2024-01-30T06:16:04;0.80;;;0.80;;
6551;SDS011;3309;48.708;9.290;2024-01-30T06:18:31;0.80;;;0.80;;
6551;SDS011;3309;48.708;9.290;2024-01-30T06:20:57;0.90;;;0.90;;
6551;SDS011;3309;48.708;9.290;2024-01-30T06:23:23;0.83;;;0.83;;
6551;SDS011;3309;48.708;9.290;2024-01-30T06:25:49;0.80;;;0.80;;
6551;SDS011;3309;48.708;9.290;2024-01-30T06:28:15;0.90;;;0.90;;
6551;SDS011;3309;48.708;9.290;2024-01-30T06:30:41;0.90;;;0.90;;
6551;SDS011;3309;48.708;9.290;2024-01-30T06:33:07;0.90;;;0.90;;
6551;SDS011;3309;48.708;9.290;2024-01-30T06:35:33;0.80;;;0.80;;
6551;SDS011;3309;48.708;9.290;2024-01-30T06:38:01;1.00;;;1.00;;
6551;SDS011;3309;48.708;9.290;2024-01-30T06:40:27;0.83;;;0.83;;
6551;SDS011;3309;48.708;9.290;2024-01-30T06:42:53;0.80;;;0.80;;
6551;SDS011;3309;48.708;9.290;2024-01-30T06:45:19;0.90;;;0.90;;
6551;SDS011;3309;48.708;9.290;2024-01-30T06:47:45;0.90;;;0.90;;
6551;SDS011;3309;48.708;9.290;2024-01-30T06:50:11;0.90;;;0.90;;
6551;SDS011;3309;48.708;9.290;2024-01-30T06:52:36;0.80;;;0.80;;
6551;SDS011;3309;48.708;9.290;2024-01-30T06:55:04;0.90;;;0.90;;
6551;SDS011;3309;48.708;9.290;2024-01-30T06:57:30;0.90;;;0.90;;
6551;SDS011;3309;48.708;9.290;2024-01-30T06:59:56;0.93;;;0.93;;
6551;SDS011;3309;48.708;9.290;2024-01-30T07:02:22;0.80;;;0.80;;
6551;SDS011;3309;48.708;9.290;2024-01-30T07:04:48;0.90;;;0.90;;
6551;SDS011;3309;48.708;9.290;2024-01-30T07:07:14;0.80;;;0.80;;
6551;SDS011;3309;48.708;9.290;2024-01-30T07:09:41;0.90;;;0.90;;
6551;SDS011;3309;48.708;9.290;2024-01-30T07:12:08;0.90;;;0.90;;
6551;SDS011;3309;48.708;9.290;2024-01-30T07:14:34;0.90;;;0.90;;
6551;SDS011;3309;48.708;9.290;2024-01-30T07:17:00;0.80;;;0.80;;
6551;SDS011;3309;48.708;9.290;2024-01-30T07:19:26;0.90;;;0.90;;
6551;SDS011;3309;48.708;9.290;2024-01-30T07:21:52;0.80;;;0.80;;
6551;SDS011;3309;48.708;9.290;2024-01-30T07:24:18;0.80;;;0.80;;
6551;SDS011;3309;48.708;9.290;2024-01-30T07:26:44;0.80;;;0.80;;
6551;SDS011;3309;48.708;9.290;2024-01-30T07:29:10;0.80;;;0.80;;
6551;SDS011;3309;48.708;9.290;2024-01-30T07:31:36;0.90;;;0.90;;
6551;SDS011;3309;48.708;9.290;2024-01-30T07:34:02;0.80;;;0.80;;
6551;SDS011;3309;48.708;9.290;2024-01-30T07:36:28;0.80;;;0.80;;
6551;SDS011;3309;48.708;9.290;2024-01-30T07:38:54;0.80;;;0.80;;
6551;SDS011;3309;48.708;9.290;2024-01-30T07:41:20;0.80;;;0.80;;
6551;SDS011;3309;48.708;9.290;2024-01-30T07:43:46;0.80;;;0.80;;
6551;SDS011;3309;48.708;9.290;2024-01-30T07:46:12;0.70;;;0.70;;
6551;SDS011;3309;48.708;9.290;2024-01-30T07:48:38;0.87;;;0.87;;
6551;SDS011;3309;48.708;9.290;2024-01-30T07:51:04;0.80;;;0.80;;
6551;SDS011;3309;48.708;9.290;2024-01-30T07:53:30;0.80;;;0.80;;
6551;SDS011;3309;48.708;9.290;2024-01-30T07:55:56;0.70;;;0.70;;
6551;SDS011;3309;48.708;9.290;2024-01-30T07:58:22;0.60;;;0.60;;
6551;SDS011;3309;48.708;9.290;2024-01-30T08:00:48;0.70;;;0.70;;
6551;SDS011;3309;48.708;9.290;2024-01-30T08:03:16;0.70;;;0.70;;
6551;SDS011;3309;48.708;9.290;2024-01-30T08:05:43;0.60;;;0.60;;
6551;SDS011;3309;48.708;9.290;2024-01-30T08:08:09;0.60;;;0.60;;
6551;SDS011;3309;48.708;9.290;2024-01-30T08:10:35;0.60;;;0.60;;
6551;SDS011;3309;48.708;9.290;2024-01-30T08:13:01;0.70;;;0.70;;
6551;SDS011;3309;48.708;9.290;2024-01-30T08:15:27;0.70;;;0.70;;
6551;SDS011;3309;48.708;9.290;2024-01-30T08:17:53;0.70;;;0.70;;
6551;SDS011;3309;48.708;9.290;2024-01-30T08:20:24;0.70;;;0.70;;
6551;SDS011;3309;48.708;9.290;2024-01-30T08:22:50;0.60;;;0.60;;
6551;SDS011;3309;48.708;9.290;2024-01-30T08:25:16;0.60;;;0.60;;
6551;SDS011;3309;48.708;9.290;2024-01-30T08:27:42;0.73;;;0.73;;
6551;SDS011;3309;48.708;9.290;2024-01-30T08:30:08;0.70;;;0.70;;
6551;SDS011;3309;48.708;9.290;2024-01-30T08:32:34;0.70;;;0.70;;
6551;SDS011;3309;48.708;9.290;2024-01-30T08:35:00;0.60;;;0.60;;
6551;SDS011;3309;48.708;9.290;2024-01-30T08:37:28;0.70;;;0.70;;
6551;SDS011;3309;48.708;9.290;2024-01-30T08:39:54;0.60;;;0.60;;
6551;SDS011;3309;48.708;9.290;2024-01-30T08:42:20;0.60;;;0.60;;
6551;SDS011;3309;48.708;9.290;2024-01-30T08:44:51;0.67;;;0.67;;
6551;SDS011;3309;48.708;9.290;2024-01-30T08:47:18;0.50;;;0.50;;
6551;SDS011;3309;48.708;9.290;2024-01-30T08:49:44;0.50;;;0.50;;
6551;SDS011;3309;48.708;9.290;2024-01-30T08:52:10;0.60;;;0.60;;
6551;SDS011;3309;48.708;9.290;2024-01-30T08:54:36;0.53;;;0.53;;
6551;SDS011;3309;48.708;9.290;2024-01-30T08:57:02;0.40;;;0.40;;
6551;SDS011;3309;48.708;9.290;2024-01-30T08:59:29;0.60;;;0.60;;
6551;SDS011;3309;48.708;9.290;2024-01-30T09:01:55;0.57;;;0.57;;
6551;SDS011;3309;48.708;9.290;2024-01-30T09:04:22;0.60;;;0.60;;
6551;SDS011;3309;48.708;9.290;2024-01-30T09:06:49;0.50;;;0.50;;
6551;SDS011;3309;48.708;9.290;2024-01-30T09:09:15;0.70;;;0.70;;
6551;SDS011;3309;48.708;9.290;2024-01-30T09:11:41;0.50;;;0.50;;
6551;SDS011;3309;48.708;9.290;2024-01-30T09:14:07;0.70;;;0.70;;
6551;SDS011;3309;48.708;9.290;2024-01-30T09:16:33;0.60;;;0.60;;
6551;SDS011;3309;48.708;9.290;2024-01-30T09:18:59;0.50;;;0.50;;
6551;SDS011;3309;48.708;9.290;2024-01-30T09:21:25;0.50;;;0.50;;
6551;SDS011;3309;48.708;9.290;2024-01-30T09:23:53;0.50;;;0.50;;
6551;SDS011;3309;48.708;9.290;2024-01-30T09:26:20;0.60;;;0.60;;
6551;SDS011;3309;48.708;9.290;2024-01-30T09:28:46;0.50;;;0.50;;
6551;SDS011;3309;48.708;9.290;2024-01-30T09:31:12;0.40;;;0.40;;
6551;SDS011;3309;48.708;9.290;2024-01-30T09:33:38;0.47;;;0.47;;
6551;SDS011;3309;48.708;9.290;2024-01-30T09:36:07;0.43;;;0.43;;
6551;SDS011;3309;48.708;9.290;2024-01-30T09:38:33;0.47;;;0.47;;
6551;SDS011;3309;48.708;9.290;2024-01-30T09:41:01;0.40;;;0.40;;
6551;SDS011;3309;48.708;9.290;2024-01-30T09:43:30;0.53;;;0.53;;
6551;SDS011;3309;48.708;9.290;2024-01-30T09:46:00;0.40;;;0.40;;
6551;SDS011;3309;48.708;9.290;2024-01-30T09:48:27;0.40;;;0.40;;
6551;SDS011;3309;48.708;9.290;2024-01-30T09:50:53;0.60;;;0.60;;
6551;SDS011;3309;48.708;9.290;2024-01-30T09:53:19;0.60;;;0.60;;
6551;SDS011;3309;48.708;9.290;2024-01-30T09:55:45;0.60;;;0.60;;
6551;SDS011;3309;48.708;9.290;2024-01-30T09:58:12;0.53;;;0.53;;
6551;SDS011;3309;48.708;9.290;2024-01-30T10:00:38;0.50;;;0.50;;
6551;SDS011;3309;48.708;9.290;2024-01-30T10:03:04;0.60;;;0.60;;
6551;SDS011;3309;48.708;9.290;2024-01-30T10:05:31;0.40;;;0.40;;
6551;SDS011;3309;48.708;9.290;2024-01-30T10:08:00;0.70;;;0.70;;
6551;SDS011;3309;48.708;9.290;2024-01-30T10:10:26;0.43;;;0.43;;
6551;SDS011;3309;48.708;9.290;2024-01-30T10:12:52;0.60;;;0.60;;
6551;SDS011;3309;48.708;9.290;2024-01-30T10:15:18;0.70;;;0.70;;
6551;SDS011;3309;48.708;9.290;2024-01-30T10:17:44;0.50;;;0.50;;
6551;SDS011;3309;48.708;9.290;2024-01-30T10:20:11;0.35;;;0.35;;
6551;SDS011;3309;48.708;9.290;2024-01-30T10:22:37;0.50;;;0.50;;
6551;SDS011;3309;48.708;9.290;2024-01-30T10:25:04;0.50;;;0.50;;
6551;SDS011;3309;48.708;9.290;2024-01-30T10:27:30;0.40;;;0.40;;
6551;SDS011;3309;48.708;9.290;2024-01-30T10:29:56;0.60;;;0.60;;
6551;SDS011;3309;48.708;9.290;2024-01-30T10:32:22;0.47;;;0.47;;
6551;SDS011;3309;48.708;9.290;2024-01-30T10:34:48;0.50;;;0.50;;
6551;SDS011;3309;48.708;9.290;2024-01-30T10:37:14;0.60;;;0.60;;
6551;SDS011;3309;48.708;9.290;2024-01-30T10:39:42;0.60;;;0.60;;
6551;SDS011;3309;48.708;9.290;2024-01-30T10:42:12;0.67;;;0.67;;
6551;SDS011;3309;48.708;9.290;2024-01-30T10:44:47;0.60;;;0.60;;
6551;SDS011;3309;48.708;9.290;2024-01-30T10:47:14;0.70;;;0.70;;
6551;SDS011;3309;48.708;9.290;2024-01-30T10:49:44;0.60;;;0.60;;
6551;SDS011;3309;48.708;9.290;2024-01-30T10:52:12;0.70;;;0.70;;
6551;SDS011;3309;48.708;9.290;2024-01-30T10:54:39;0.70;;;0.70;;
6551;SDS011;3309;48.708;9.290;2024-01-30T10:57:05;0.70;;;0.70;;
6551;SDS011;3309;48.708;9.290;2024-01-30T10:59:32;0.70;;;0.70;;
6551;SDS011;3309;48.708;9.290;2024-01-30T11:01:58;0.60;;;0.60;;
6551;SDS011;3309;48.708;9.290;2024-01-30T11:04:25;0.70;;;0.70;;
6551;SDS011;3309;48.708;9.290;2024-01-30T11:06:51;0.60;;;0.60;;
6551;SDS011;3309;48.708;9.290;2024-01-30T11:09:20;0.60;;;0.60;;
6551;SDS011;3309;48.708;9.290;2024-01-30T11:11:55;0.70;;;0.70;;
6551;SDS011;3309;48.708;9.290;2024-01-30T11:14:25;0.70;;;0.70;;
6551;SDS011;3309;48.708;9.290;2024-01-30T11:16:51;0.60;;;0.60;;
6551;SDS011;3309;48.708;9.290;2024-01-30T11:19:24;0.60;;;0.60;;
6551;SDS011;3309;48.708;9.290;2024-01-30T11:21:51;0.70;;;0.70;;
6551;SDS011;3309;48.708;9.290;2024-01-30T11:24:19;0.70;;;0.70;;
6551;SDS011;3309;48.708;9.290;2024-01-30T11:26:45;0.70;;;0.70;;
6551;SDS011;3309;48.708;9.290;2024-01-30T11:29:13;0.70;;;0.70;;
6551;SDS011;3309;48.708;9.290;2024-01-30T11:31:51;0.70;;;0.70;;
6551;SDS011;3309;48.708;9.290;2024-01-30T11:34:17;0.70;;;0.70;;
6551;SDS011;3309;48.708;9.290;2024-01-30T11:36:43;0.60;;;0.60;;
6551;SDS011;3309;48.708;9.290;2024-01-30T11:39:11;0.63;;;0.63;;
6551;SDS011;3309;48.708;9.290;2024-01-30T11:41:37;0.80;;;0.80;;
6551;SDS011;3309;48.708;9.290;2024-01-30T11:44:04;0.80;;;0.80;;
6551;SDS011;3309;48.708;9.290;2024-01-30T11:46:30;0.50;;;0.50;;
6551;SDS011;3309;48.708;9.290;2024-01-30T11:48:56;0.60;;;0.60;;
6551;SDS011;3309;48.708;9.290;2024-01-30T11:51:22;0.60;;;0.60;;
6551;SDS011;3309;48.708;9.290;2024-01-30T11:53:51;0.70;;;0.70;;
6551;SDS011;3309;48.708;9.290;2024-01-30T11:56:17;0.73;;;0.73;;
6551;SDS011;3309;48.708;9.290;2024-01-30T11:58:43;0.60;;;0.60;;
6551;SDS011;3309;48.708;9.290;2024-01-30T12:01:10;0.67;;;0.67;;
6551;SDS011;3309;48.708;9.290;2024-01-30T12:03:36;0.70;;;0.70;;
6551;SDS011;3309;48.708;9.290;2024-01-30T12:06:02;0.70;;;0.70;;
6551;SDS011;3309;48.708;9.290;2024-01-30T12:08:28;0.73;;;0.73;;
6551;SDS011;3309;48.708;9.290;2024-01-30T12:10:55;0.73;;;0.73;;
6551;SDS011;3309;48.708;9.290;2024-01-30T12:13:21;0.73;;;0.73;;
6551;SDS011;3309;48.708;9.290;2024-01-30T12:15:47;0.70;;;0.70;;
6551;SDS011;3309;48.708;9.290;2024-01-30T12:18:13;0.70;;;0.70;;
6551;SDS011;3309;48.708;9.290;2024-01-30T12:20:39;0.90;;;0.90;;
6551;SDS011;3309;48.708;9.290;2024-01-30T12:23:06;0.70;;;0.70;;
6551;SDS011;3309;48.708;9.290;2024-01-30T12:25:32;0.70;;;0.70;;
6551;SDS011;3309;48.708;9.290;2024-01-30T12:27:58;0.80;;;0.80;;
6551;SDS011;3309;48.708;9.290;2024-01-30T12:30:24;0.80;;;0.80;;
6551;SDS011;3309;48.708;9.290;2024-01-30T12:32:50;0.70;;;0.70;;
6551;SDS011;3309;48.708;9.290;2024-01-30T12:35:17;0.80;;;0.80;;
6551;SDS011;3309;48.708;9.290;2024-01-30T12:37:43;0.70;;;0.70;;
6551;SDS011;3309;48.708;9.290;2024-01-30T12:40:10;0.70;;;0.70;;
6551;SDS011;3309;48.708;9.290;2024-01-30T12:42:38;0.63;;;0.63;;
6551;SDS011;3309;48.708;9.290;2024-01-30T12:45:04;0.70;;;0.70;;
6551;SDS011;3309;48.708;9.290;2024-01-30T12:47:31;0.70;;;0.70;;
6551;SDS011;3309;48.708;9.290;2024-01-30T12:49:57;0.60;;;0.60;;
6551;SDS011;3309;48.708;9.290;2024-01-30T12:52:23;0.70;;;0.70;;
6551;SDS011;3309;48.708;9.290;2024-01-30T12:54:49;0.77;;;0.77;;
6551;SDS011;3309;48.708;9.290;2024-01-30T12:57:15;0.70;;;0.70;;
6551;SDS011;3309;48.708;9.290;2024-01-30T12:59:42;0.70;;;0.70;;
6551;SDS011;3309;48.708;9.290;2024-01-30T13:02:08;0.60;;;0.60;;
6551;SDS011;3309;48.708;9.290;2024-01-30T13:04:34;0.73;;;0.73;;
6551;SDS011;3309;48.708;9.290;2024-01-30T13:07:00;0.60;;;0.60;;
6551;SDS011;3309;48.708;9.290;2024-01-30T13:09:26;0.50;;;0.50;;
6551;SDS011;3309;48.708;9.290;2024-01-30T13:11:52;0.60;;;0.60;;
6551;SDS011;3309;48.708;9.290;2024-01-30T13:14:19;0.60;;;0.60;;
6551;SDS011;3309;48.708;9.290;2024-01-30T13:16:45;0.60;;;0.60;;
6551;SDS011;3309;48.708;9.290;2024-01-30T13:19:11;0.50;;;0.50;;
6551;SDS011;3309;48.708;9.290;2024-01-30T13:21:37;0.60;;;0.60;;
6551;SDS011;3309;48.708;9.290;2024-01-30T13:24:03;0.60;;;0.60;;
6551;SDS011;3309;48.708;9.290;2024-01-30T13:26:29;0.60;;;0.60;;
6551;SDS011;3309;48.708;9.290;2024-01-30T13:28:56;0.60;;;0.60;;
6551;SDS011;3309;48.708;9.290;2024-01-30T13:31:22;0.50;;;0.50;;
6551;SDS011;3309;48.708;9.290;2024-01-30T13:33:48;0.50;;;0.50;;
6551;SDS011;3309;48.708;9.290;2024-01-30T13:36:14;0.60;;;0.60;;
6551;SDS011;3309;48.708;9.290;2024-01-30T13:38:40;0.60;;;0.60;;
6551;SDS011;3309;48.708;9.290;2024-01-30T13:41:06;0.60;;;0.60;;
6551;SDS011;3309;48.708;9.290;2024-01-30T13:43:32;0.50;;;0.50;;
6551;SDS011;3309;48.708;9.290;2024-01-30T13:45:58;0.50;;;0.50;;
6551;SDS011;3309;48.708;9.290;2024-01-30T13:48:24;0.50;;;0.50;;
6551;SDS011;3309;48.708;9.290;2024-01-30T13:50:51;0.60;;;0.60;;
6551;SDS011;3309;48.708;9.290;2024-01-30T13:53:18;0.60;;;0.60;;
6551;SDS011;3309;48.708;9.290;2024-01-30T13:55:44;0.57;;;0.57;;
6551;SDS011;3309;48.708;9.290;2024-01-30T13:58:10;0.70;;;0.70;;
6551;SDS011;3309;48.708;9.290;2024-01-30T14:00:36;0.60;;;0.60;;
6551;SDS011;3309;48.708;9.290;2024-01-30T14:03:03;0.70;;;0.70;;
6551;SDS011;3309;48.708;9.290;2024-01-30T14:05:29;0.50;;;0.50;;
6551;SDS011;3309;48.708;9.290;2024-01-30T14:07:55;0.50;;;0.50;;
6551;SDS011;3309;48.708;9.290;2024-01-30T14:10:22;0.53;;;0.53;;
6551;SDS011;3309;48.708;9.290;2024-01-30T14:12:48;0.60;;;0.60;;
6551;SDS011;3309;48.708;9.290;2024-01-30T14:15:14;0.60;;;0.60;;
6551;SDS011;3309;48.708;9.290;2024-01-30T14:17:42;0.60;;;0.60;;
6551;SDS011;3309;48.708;9.290;2024-01-30T14:20:09;0.50;;;0.50;;
6551;SDS011;3309;48.708;9.290;2024-01-30T14:22:35;0.50;;;0.50;;
6551;SDS011;3309;48.708;9.290;2024-01-30T14:25:01;0.60;;;0.60;;
6551;SDS011;3309;48.708;9.290;2024-01-30T14:27:31;0.60;;;0.60;;
6551;SDS011;3309;48.708;9.290;2024-01-30T14:29:58;0.60;;;0.60;;
6551;SDS011;3309;48.708;9.290;2024-01-30T14:32:24;0.60;;;0.60;;
6551;SDS011;3309;48.708;9.290;2024-01-30T14:34:50;0.50;;;0.50;;
6551;SDS011;3309;48.708;9.290;2024-01-30T14:37:17;0.63;;;0.63;;
6551;SDS011;3309;48.708;9.290;2024-01-30T14:39:43;0.67;;;0.67;;
6551;SDS011;3309;48.708;9.290;2024-01-30T14:42:09;0.50;;;0.50;;
6551;SDS011;3309;48.708;9.290;2024-01-30T14:44:35;0.60;;;0.60;;
6551;SDS011;3309;48.708;9.290;2024-01-30T14:47:01;0.50;;;0.50;;
6551;SDS011;3309;48.708;9.290;2024-01-30T14:49:27;0.50;;;0.50;;
6551;SDS011;3309;48.708;9.290;2024-01-30T14:51:53;0.60;;;0.60;;
6551;SDS011;3309;48.708;9.290;2024-01-30T14:54:19;0.50;;;0.50;;
6551;SDS011;3309;48.708;9.290;2024-01-30T14:56:45;0.60;;;0.60;;
6551;SDS011;3309;48.708;9.290;2024-01-30T14:59:11;0.70;;;0.70;;
6551;SDS011;3309;48.708;9.290;2024-01-30T15:01:37;0.60;;;0.60;;
6551;SDS011;3309;48.708;9.290;2024-01-30T15:04:03;0.50;;;0.50;;
6551;SDS011;3309;48.708;9.290;2024-01-30T15:06:29;0.53;;;0.53;;
6551;SDS011;3309;48.708;9.290;2024-01-30T15:08:56;0.60;;;0.60;;